地図

経路データ

SID SEASON NUMBER BASIN SUBBASIN NAME ISO_TIME NATURE LAT LON WMO_WIND WMO_PRES WMO_AGENCY TRACK_TYPE DIST2LAND LANDFALL IFLAG USA_AGENCY USA_ATCF_ID USA_LAT USA_LON USA_RECORD USA_STATUS USA_WIND USA_PRES USA_SSHS USA_R34_NE USA_R34_SE USA_R34_SW USA_R34_NW USA_R50_NE USA_R50_SE USA_R50_SW USA_R50_NW USA_R64_NE USA_R64_SE USA_R64_SW USA_R64_NW USA_POCI USA_ROCI USA_RMW USA_EYE TOKYO_LAT TOKYO_LON TOKYO_GRADE TOKYO_WIND TOKYO_PRES TOKYO_R50_DIR TOKYO_R50_LONG TOKYO_R50_SHORT TOKYO_R30_DIR TOKYO_R30_LONG TOKYO_R30_SHORT TOKYO_LAND CMA_LAT CMA_LON CMA_CAT CMA_WIND CMA_PRES HKO_LAT HKO_LON HKO_CAT HKO_WIND HKO_PRES NEWDELHI_LAT NEWDELHI_LON NEWDELHI_GRADE NEWDELHI_WIND NEWDELHI_PRES NEWDELHI_CI NEWDELHI_DP NEWDELHI_POCI REUNION_LAT REUNION_LON REUNION_TYPE REUNION_WIND REUNION_PRES REUNION_TNUM REUNION_CI REUNION_RMW REUNION_R34_NE REUNION_R34_SE REUNION_R34_SW REUNION_R34_NW REUNION_R50_NE REUNION_R50_SE REUNION_R50_SW REUNION_R50_NW REUNION_R64_NE REUNION_R64_SE REUNION_R64_SW REUNION_R64_NW BOM_LAT BOM_LON BOM_TYPE BOM_WIND BOM_PRES BOM_TNUM BOM_CI BOM_RMW BOM_R34_NE BOM_R34_SE BOM_R34_SW BOM_R34_NW BOM_R50_NE BOM_R50_SE BOM_R50_SW BOM_R50_NW BOM_R64_NE BOM_R64_SE BOM_R64_SW BOM_R64_NW BOM_ROCI BOM_POCI BOM_EYE BOM_POS_METHOD BOM_PRES_METHOD NADI_LAT NADI_LON NADI_CAT NADI_WIND NADI_PRES WELLINGTON_LAT WELLINGTON_LON WELLINGTON_WIND WELLINGTON_PRES DS824_LAT DS824_LON DS824_STAGE DS824_WIND DS824_PRES TD9636_LAT TD9636_LON TD9636_STAGE TD9636_WIND TD9636_PRES TD9635_LAT TD9635_LON TD9635_WIND TD9635_PRES TD9635_ROCI NEUMANN_LAT NEUMANN_LON NEUMANN_CLASS NEUMANN_WIND NEUMANN_PRES MLC_LAT MLC_LON MLC_CLASS MLC_WIND MLC_PRES USA_GUST BOM_GUST BOM_GUST_PER REUNION_GUST REUNION_GUST_PER USA_SEAHGT USA_SEARAD_NE USA_SEARAD_SE USA_SEARAD_SW USA_SEARAD_NW STORM_SPEED STORM_DIR
1950221N21089 1950 52 NI BB NOT_NAMED 1950-08-08 18:00:00 TS 20.6000 89.3000 main 113 102 O________O____ jtwc_io IO091950 20.6000 89.3000 -1 20.6000 89.3000 TC 2 12
1950221N21089 1950 52 NI BB NOT_NAMED 1950-08-08 21:00:00 TS 20.6775 89.3075 main 102 91 P________P____ IO091950 20.6775 89.3075 -1 20.6775 89.3075 TC 2 8
1950221N21089 1950 52 NI BB NOT_NAMED 1950-08-09 00:00:00 TS 20.8000 89.3000 main 91 70 O________O____ jtwc_io IO091950 20.8000 89.3000 -1 20.8000 89.3000 TC 25 3 354
1950221N21089 1950 52 NI BB NOT_NAMED 1950-08-09 03:00:00 TS 21.0044 89.2688 main 70 35 P________PO___ IO091950 21.0050 89.2649 -1 21.0050 89.2649 TC 25 21.0000 89.3000 1 5 350
1950221N21089 1950 52 NI BB NOT_NAMED 1950-08-09 06:00:00 TS 21.3168 89.2065 main 35 0 O________OP___ jtwc_io IO091950 21.3000 89.2000 -1 21.3000 89.2000 TC 25 21.3841 89.2323 1 7 350
1950221N21089 1950 52 NI BB NOT_NAMED 1950-08-09 09:00:00 TS 21.7066 89.1331 main 10 0 P________PP___ IO091950 21.6849 89.1299 -1 21.6849 89.1299 TC 25 21.7645 89.1417 1 8 346
1950221N21089 1950 52 NI BB NOT_NAMED 1950-08-09 12:00:00 TS 22.1126 89.0017 main 0 0 O________OP___ jtwc_io IO091950 22.1000 89.0000 -1 22.1000 89.0000 TC 25 22.1377 89.0053 1 8 337
1950221N21089 1950 52 NI BB NOT_NAMED 1950-08-09 15:00:00 TS 22.4716 88.7916 main 0 0 P________PO___ IO091950 22.4575 88.7874 -1 22.4575 88.7874 TC 25 22.5000 88.8000 1 8 327
1950221N21089 1950 52 NI BB NOT_NAMED 1950-08-09 18:00:00 TS 22.8150 88.5049 main 0 0 O________OP___ jtwc_io IO091950 22.8000 88.5000 -1 22.8000 88.5000 TC 25 22.8449 88.5147 1 9 320
1950221N21089 1950 52 NI BB NOT_NAMED 1950-08-09 21:00:00 TS 23.1820 88.1523 main 0 0 P________PP___ IO091950 23.1952 88.1354 -1 23.1952 88.1354 TC 25 23.1558 88.1863 1 9 316
1950221N21089 1950 52 NI BB NOT_NAMED 1950-08-10 00:00:00 TS 23.4712 87.8215 main 0 0 O________OP___ jtwc_io IO091950 23.5000 87.8000 -1 23.5000 87.8000 TC 25 23.4137 87.8646 1 7 309
1950221N21089 1950 52 NI BB NOT_NAMED 1950-08-10 03:00:00 TS 23.5966 87.6031 main 0 0 P________PO___ IO091950 23.5949 87.6047 -1 23.5949 87.6047 TC 25 23.6000 87.6000 1 3 298
1950221N21089 1950 52 NI BB NOT_NAMED 1950-08-10 06:00:00 TS 23.6322 87.4879 main 0 0 O________OP___ jtwc_io IO091950 23.6000 87.5000 -1 23.6000 87.5000 TC 25 23.6965 87.4636 1 2 297
1950221N21089 1950 52 NI BB NOT_NAMED 1950-08-10 09:00:00 TS 23.6798 87.4247 main 0 0 P________PP___ IO091950 23.6575 87.4425 -1 23.6575 87.4425 TC 25 23.7245 87.3891 1 1 308
1950221N21089 1950 52 NI BB NOT_NAMED 1950-08-10 12:00:00 TS 23.7051 87.3817 main 0 0 O________OP___ jtwc_io IO091950 23.7000 87.4000 -1 23.7000 87.4000 TC 25 23.7154 87.3451 1 1 280
1950221N21089 1950 52 NI BB NOT_NAMED 1950-08-10 15:00:00 TS 23.7000 87.3050 main 0 0 P________PO___ IO091950 23.7000 87.3075 -1 23.7000 87.3075 TC 25 23.7000 87.3000 1 2 271
1950221N21089 1950 52 NI BB NOT_NAMED 1950-08-10 18:00:00 TS 23.7083 87.2024 main 0 0 O________OP___ jtwc_io IO091950 23.7000 87.2000 -1 23.7000 87.2000 TC 25 23.7250 87.2072 1 2 285
1950221N21089 1950 52 NI BB NOT_NAMED 1950-08-10 21:00:00 TS 23.7500 87.1025 main 0 0 P________PP___ IO091950 23.7500 87.1000 -1 23.7500 87.1000 TC 25 23.7500 87.1075 1 2 294
1950221N21089 1950 52 NI BB NOT_NAMED 1950-08-11 00:00:00 TS 23.7917 87.0014 main 0 0 O________OP___ jtwc_io IO091950 23.8000 87.0000 -1 23.8000 87.0000 TC 25 23.7750 87.0041 1 2 285
1950221N21089 1950 52 NI BB NOT_NAMED 1950-08-11 03:00:00 TS 23.8000 86.9000 main 0 0 P________PO___ IO091950 23.8000 86.9000 -1 23.8000 86.9000 TC 25 23.8000 86.9000 1 2 275
1950221N21089 1950 52 NI BB NOT_NAMED 1950-08-11 06:00:00 TS 23.8083 86.8014 main 0 0 O________OP___ jtwc_io IO091950 23.8000 86.8000 -1 23.8000 86.8000 TC 25 23.8250 86.8040 1 2 285
1950221N21089 1950 52 NI BB NOT_NAMED 1950-08-11 09:00:00 TS 23.8500 86.7025 main 0 0 P________PP___ IO091950 23.8500 86.7000 -1 23.8500 86.7000 TC 25 23.8499 86.7075 1 2 295
1950221N21089 1950 52 NI BB NOT_NAMED 1950-08-11 12:00:00 TS 23.8916 86.6024 main 0 0 O________OP___ jtwc_io IO091950 23.9000 86.6000 -1 23.9000 86.6000 TC 25 23.8750 86.6072 1 2 285
1950221N21089 1950 52 NI BB NOT_NAMED 1950-08-11 15:00:00 TS 23.9000 86.5000 main 0 0 P________PO___ IO091950 23.9000 86.5000 -1 23.9000 86.5000 TC 25 23.9000 86.5000 1 2 274
1950221N21089 1950 52 NI BB NOT_NAMED 1950-08-11 18:00:00 TS 23.9056 86.4021 main 0 0 O________OP___ jtwc_io IO091950 23.9000 86.4000 -1 23.9000 86.4000 TC 25 23.9167 86.4064 1 2 285
1950221N21089 1950 52 NI BB NOT_NAMED 1950-08-11 21:00:00 TS 23.9449 86.3108 main 0 0 P________PP___ IO091950 23.9500 86.3150 -1 23.9500 86.3150 TC 25 23.9347 86.3023 1 2 293
1950221N21089 1950 52 NI BB NOT_NAMED 1950-08-12 00:00:00 TS 23.9868 86.1907 main 0 0 O________OP___ jtwc_io IO091950 24.0000 86.2000 -1 24.0000 86.2000 TC 25 23.9604 86.1720 1 3 281
1950221N21089 1950 52 NI BB NOT_NAMED 1950-08-12 03:00:00 TS 23.9950 86.0199 main 0 0 P________PO___ IO091950 23.9925 86.0299 -1 23.9925 86.0299 TC 25 24.0000 86.0000 1 4 274
1950221N21089 1950 52 NI BB NOT_NAMED 1950-08-12 06:00:00 TS 24.0135 85.7853 main 0 0 O________OP___ jtwc_io IO091950 24.0000 85.8000 -1 24.0000 85.8000 TC 25 24.0406 85.7558 1 5 281
1950221N21089 1950 52 NI BB NOT_NAMED 1950-08-12 09:00:00 TS 24.0843 85.4958 main 0 0 P________PP___ IO091950 24.0776 85.5075 -1 24.0776 85.5075 TC 25 24.0979 85.4723 1 6 288
1950221N21089 1950 52 NI BB NOT_NAMED 1950-08-12 12:00:00 TS 24.1937 85.1925 main 0 0 O________OP___ jtwc_io IO091950 24.2000 85.2000 -1 24.2000 85.2000 TC 25 24.1812 85.1776 1 6 295
1950221N21089 1950 52 NI BB NOT_NAMED 1950-08-12 15:00:00 TS 24.3233 84.9283 main 0 0 P________PO___ IO091950 24.3349 84.9424 -1 24.3349 84.9424 TC 25 24.3000 84.9000 1 6 303
1950221N21089 1950 52 NI BB NOT_NAMED 1950-08-12 18:00:00 TS 24.4934 84.6821 main 0 0 O________OP___ jtwc_io IO091950 24.5000 84.7000 -1 24.5000 84.7000 TC 25 24.4803 84.6464 1 6 309
1950221N21089 1950 52 NI BB NOT_NAMED 1950-08-12 21:00:00 TS 24.6975 84.4245 main 0 0 P________PP___ IO091950 24.7000 84.4276 -1 24.7000 84.4276 TC 25 24.6925 84.4182 1 6 314
1950221N21089 1950 52 NI BB NOT_NAMED 1950-08-13 00:00:00 TS 24.9028 84.2103 main 0 0 O________OP___ jtwc_io IO091950 24.9000 84.2000 -1 24.9000 84.2000 TC 25 24.9085 84.2308 1 5 320
1950221N21089 1950 52 NI BB NOT_NAMED 1950-08-13 03:00:00 TS 25.0766 84.0700 main 0 0 P________PO___ IO091950 25.0649 84.0549 -1 25.0649 84.0549 TC 25 25.1000 84.1000 1 4 329
1950221N21089 1950 52 NI BB NOT_NAMED 1950-08-13 06:00:00 TS 25.2068 84.0113 main 0 0 O________OP___ jtwc_io IO091950 25.2000 84.0000 -1 25.2000 84.0000 TC 25 25.2204 84.0340 1 2 349
1950221N21089 1950 52 NI BB NOT_NAMED 1950-08-13 09:00:00 TS 25.3099 84.0315 main 0 0 P________PP___ IO091950 25.3075 84.0349 -1 25.3075 84.0349 TC 25 25.3148 84.0246 1 2 20
1950221N21089 1950 52 NI BB NOT_NAMED 1950-08-13 12:00:00 TS 25.4006 84.0843 main 0 0 O________OP___ jtwc_io IO091950 25.4000 84.1000 -1 25.4000 84.1000 TC 25 25.4018 84.0529 1 2 17
1950221N21089 1950 52 NI BB NOT_NAMED 1950-08-13 15:00:00 TS 25.4950 84.1000 main 0 0 P________PO___ IO091950 25.4925 84.1000 -1 25.4925 84.1000 TC 25 25.5000 84.1000 1 2 11
1950221N21089 1950 52 NI BB NOT_NAMED 1950-08-13 18:00:00 TS 25.6095 84.1200 main 0 0 O________OP___ jtwc_io IO091950 25.6000 84.1000 -1 25.6000 84.1000 TC 25 25.6238 84.1501 1 3 11
1950221N21089 1950 52 NI BB NOT_NAMED 1950-08-13 21:00:00 TS 25.7529 84.1643 main 0 0 P________PP___ IO091950 25.7400 84.1374 -1 25.7400 84.1374 TC 25 25.7701 84.2000 1 3 18
1950221N21089 1950 52 NI BB NOT_NAMED 1950-08-14 00:00:00 TS 25.9157 84.2250 main 0 0 O________OP___ jtwc_io IO091950 25.9000 84.2000 -1 25.9000 84.2000 TC 25 25.9313 84.2500 1 4 20
1950221N21089 1950 52 NI BB NOT_NAMED 1950-08-14 03:00:00 NR 26.1000 84.3000 main 0 __________O___ IO091950 -1 TC 26.1000 84.3000 1 4 21

IBTrACS Databaseについて

本データベースは、米国NOAAが公開する1842年以降の世界の熱帯低気圧のベストトラックデータアーカイブInternational Best Track Archive for Climate Stewardship (IBTrACS)を、ウェブで閲覧しやすい形式に変換したものです。

最終更新日:2021-12-01